Airfield :
LOGIN :

Register | Disclaimer

   EN    FR    IT 

 










Legend :    VFR   Marginal VFR   IFR   Intensive IFR   Very Intensive IFR
Visi :
Ceiling :
>= 8 km
>= 3000ft
5 to 8 km
1000 to 3000 ft
1500m to 5 km
500 to 1000 ft
800 to 1500m
200 to 500 ft
< 800m
< 200 ft
Symbols :   Thunderstorms  Fog  Heavy snow  Heavy precipitations  Wind > 20 kt
SIGMETs :     Misc.  Thunderstorms  Icing  Turbulence  Mountain Waves  Volcanic Ashes







- Airport Elevation : 333 ft


LIPL - Ghedi Brescia (Mil)

CURRENT METAR :
  • 270555Z 12013KT 9999 SCT035 16/10 Q1014 RMK SCT VIS MIN 9999 WIND THR31 13013KT WIND THR13 12013KT BLU

EXPIRED METARs :
  • 270455Z 13012KT 9999 FEW034 SCT070 16/11 Q1014 RMK BKN VIS MIN 9999 WIND THR31 12012KT WIND THR13 13011KT BLU
  • 270355Z 13012KT 8000 SCT030 16/11 Q1013 RMK SCT VIS MIN 8000 WIND THR31 13012KT WIND THR13 12013KT BLU

TAF TAF LIPL
Valid from the 27 at 06:00 until the 27 at 15:00 UTC


270500Z 2706/2715 12011KT 9999 SCT035
No reported NOTAMs for that airfield.



MET'MAP, your aeronautical weather chart ! - Copyright ORBIFLY December 2007 - Disclaimer

ORBIFLY MET'MAP TEAM :

Programming & Development : Alexandra Zaïnal
Concept & Development : Baudouin d'Aumeries
Co-Development & Prog : Marc-Olivier Méhu
Technical & hardware support : Manuel Goepfert

Contact : metmap@orbifly.com




SOURCES & CREDITS :

   NOAA